RAIN

Not for real navigation. The accuracy of this data is not assured See disclaimer for more information



ICAO NAME COUNTRY WIND Kt GUST Kt VIS m TEMP/DEW C BARO METAR
KEEN Keene, Dillant-Hopkins Airport NH United States 0 0 400 2/2 30.18 KEEN 150756Z AUTO 00000KT 0.25SM FG OVC002 02/02 A3018 RMK AO2 SLP241 T00220022 FZRANO $
PFYU Fort Yukon, Fort Yukon Airport AK United States 4 0 400 -1/-1 29.91 PFYU 150756Z AUTO 06004KT 0.25SM FZFG OVC003 M01/M01 A2991 RMK AO2 SLP154 T10061006 FZRANO
LEVX Vigo / Peinador Spain 5 0 900 13/13 29.62 LEVX 150800Z 18005KT 120V210 0900 R19/P2000 R01/1700D -RA FG VV001 13/13 Q1003 TEMPO 0350
LFMU Beziers / Vias France 22 32 1000 19/17 29.71 LFMU 150800Z AUTO 11022G32KT 2000 1000 R09/3000D -TSRA BR BKN013/// OVC018/// ///CB 19/17 Q1006 TEMP
UAUU Kostanay Kazakhstan 6 0 1200 1/-1 30.00 UAUU 150800Z 02006KT 1200 R33/0750VP2000D SHSNRA BKN007 OVC028CB 01/M01 Q1016 R33/290045 TEMPO 0800

Show more